Warwick, Canada
Current Conditions -  °F | °C
As of 5:04 AM on Sunday 21 Dec 2014 (Local Time) from CYSC Reporting Station
Haze Haze  
Wind Chill:   Ceiling: 200
Heat Index:   Visibility: 1mi
Dew Point:   Wind: 3mph
Humidity: 92%   Direction: 120°ESE
Pressure: 30.3"   Gusts: NA
Location:  45.95°N, 71.98°W
Report Text: CYSC 211004Z AUTO 12003KT 1SM BR OVC002 M13/M14 A3030 RMK VIS VRB 5/8-1 3/4 SLP281
Loading
Personal Weather Stations






























Interactive Weather Map New forecast layout! Learn more

10-Day Weather Forecast

Advertisements
Track Severe Weather on mobile